Time;durP1;ratioP1;P1;durP2;ratioP2;P2;SDS_P1;SDS_P2;PMS_P1;PMS_P2;Temp;Humidity;BMP_temperature;BMP_pressure;BME280_temperature;BME280_humidity;BME280_pressure;Samples;Min_cycle;Max_cycle;Signal;HPM_P1;HPM_P2
2023/03/28 00:01:01;;;;;;;;;3.50;2.25;;;;;22.13;32.37;102075.63;5029635;28;45430;-71
2023/03/28 00:03:28;;;;;;;;;2.75;2.00;;;;;22.11;32.59;102069.53;5054177;28;46120;-71
2023/03/28 00:05:59;;;;;;;;;2.00;2.00;;;;;22.12;32.60;102072.13;5031248;28;45861;-71
2023/03/28 00:08:27;;;;;;;;;2.00;1.75;;;;;22.13;32.09;102076.50;5053536;28;45481;-71
2023/03/28 00:11:01;;;;;;;;;5.25;2.50;;;;;22.11;32.27;102067.72;5033371;28;45760;-71
2023/03/28 00:13:28;;;;;;;;;3.00;2.00;;;;;22.10;31.99;102065.16;5037380;28;46264;-72
2023/03/28 00:15:54;;;;;;;;;2.00;2.00;;;;;22.10;32.50;102068.69;5028853;28;45800;-72
2023/03/28 00:18:20;;;;;;;;;2.50;2.00;;;;;22.07;32.13;102073.31;5032903;28;45535;-72
2023/03/28 00:20:45;;;;;;;;;1.25;1.25;;;;;22.09;32.47;102076.75;5019661;28;45633;-72
2023/03/28 00:23:11;;;;;;;;;2.00;2.00;;;;;22.07;32.06;102078.66;5034962;28;76504;-72
2023/03/28 00:25:42;;;;;;;;;2.50;2.00;;;;;22.04;32.29;102074.31;5029231;28;45382;-72
2023/03/28 00:28:08;;;;;;;;;3.50;1.00;;;;;22.06;32.04;102074.25;5043043;28;45448;-72
2023/03/28 00:30:33;;;;;;;;;2.25;1.75;;;;;22.07;32.38;102075.97;5034734;28;45395;-72
2023/03/28 00:32:59;;;;;;;;;1.75;1.00;;;;;22.04;32.08;102069.00;5037819;28;75375;-72
2023/03/28 00:35:25;;;;;;;;;3.25;1.75;;;;;22.02;32.49;102060.22;5035089;28;46106;-72
2023/03/28 00:37:56;;;;;;;;;2.25;1.00;;;;;22.02;31.88;102068.22;5038094;28;45368;-72
2023/03/28 00:40:22;;;;;;;;;2.75;2.00;;;;;22.00;32.17;102060.31;5042999;28;45422;-72
2023/03/28 00:42:48;;;;;;;;;2.00;2.00;;;;;22.02;32.35;102064.69;5036405;28;46613;-72
2023/03/28 00:45:13;;;;;;;;;2.00;2.00;;;;;21.99;32.36;102057.72;5034652;28;67677;-72
2023/03/28 00:47:48;;;;;;;;;4.00;2.00;;;;;22.00;31.99;102065.63;5033673;28;45380;-72
2023/03/28 00:50:30;;;;;;;;;2.00;2.00;;;;;21.97;32.37;102057.81;5025744;28;45361;-72
2023/03/28 00:53:17;;;;;;;;;1.25;1.25;;;;;21.96;32.28;102066.75;5043264;28;46098;-72
2023/03/28 00:55:48;;;;;;;;;4.50;2.00;;;;;21.93;32.35;102058.91;5044564;28;45358;-72
2023/03/28 00:58:17;;;;;;;;;2.25;2.00;;;;;21.97;32.28;102068.50;5052643;28;45353;-72
2023/03/28 01:00:46;;;;;;;;;3.50;1.75;;;;;21.94;32.52;102062.47;5037296;28;46727;-72
2023/03/28 01:03:12;;;;;;;;;3.75;2.00;;;;;21.96;32.36;102073.91;5036684;28;45688;-72
2023/03/28 01:05:39;;;;;;;;;2.50;2.00;;;;;21.96;32.41;102074.75;5049104;28;45232;-72
2023/03/28 01:08:12;;;;;;;;;4.00;2.50;;;;;21.95;32.03;102072.16;5056510;28;45519;-72
2023/03/28 01:10:38;;;;;;;;;5.00;2.00;;;;;21.94;32.26;102073.97;5036643;28;45531;-72
2023/03/28 01:13:04;;;;;;;;;2.00;2.00;;;;;21.92;32.40;102074.97;5026441;28;73944;-72
2023/03/28 01:15:29;;;;;;;;;2.00;2.00;;;;;21.90;32.19;102060.88;5031708;28;57089;-72
2023/03/28 01:17:56;;;;;;;;;2.00;2.00;;;;;21.91;32.36;102059.94;5052519;28;64538;-72
2023/03/28 01:20:40;;;;;;;;;1.00;0.75;;;;;21.91;31.89;102068.81;5031610;28;45466;-72
2023/03/28 01:23:21;;;;;;;;;2.00;2.00;;;;;21.90;31.79;102061.75;5041008;28;45511;-72
2023/03/28 01:26:05;;;;;;;;;2.00;1.00;;;;;21.91;31.91;102066.13;5040546;28;45698;-72
2023/03/28 01:29:01;;;;;;;;;3.25;1.75;;;;;21.90;32.04;102056.44;5044262;28;45412;-72
2023/03/28 01:31:54;;;;;;;;;3.00;1.75;;;;;21.89;31.88;102061.84;5032849;28;45444;-72
2023/03/28 01:34:47;;;;;;;;;1.75;1.75;;;;;21.87;31.89;102048.59;5035600;28;45550;-72
2023/03/28 01:37:22;;;;;;;;;1.25;1.25;;;;;21.85;31.90;102050.50;5054945;28;45523;-71
2023/03/28 01:40:06;;;;;;;;;3.00;1.25;;;;;21.86;32.27;102041.53;5048769;28;45502;-71
2023/03/28 01:42:59;;;;;;;;;2.00;1.25;;;;;21.86;31.81;102040.69;5052589;28;45522;-71
2023/03/28 01:45:51;;;;;;;;;1.00;1.00;;;;;21.83;31.83;102031.03;5048242;28;46443;-71
2023/03/28 01:49:07;;;;;;;;;1.25;1.25;;;;;21.82;31.92;102018.66;5034733;28;45693;-71
2023/03/28 01:51:53;;;;;;;;;1.00;1.00;;;;;21.80;32.07;102017.91;5018137;28;45491;-71
2023/03/28 01:54:58;;;;;;;;;2.00;1.00;;;;;21.82;31.72;102016.00;5032235;28;45242;-71
2023/03/28 01:57:44;;;;;;;;;1.25;1.00;;;;;21.81;31.90;102003.59;5016702;28;45633;-71
2023/03/28 02:00:14;;;;;;;;;3.00;1.25;;;;;21.80;31.79;102002.75;5034223;28;45475;-71
2023/03/28 02:02:48;;;;;;;;;1.75;1.75;;;;;21.79;32.37;101994.84;5050073;28;45503;-71
2023/03/28 02:05:14;;;;;;;;;2.75;1.25;;;;;21.79;31.81;101990.38;5038567;28;45325;-71
2023/03/28 02:07:42;;;;;;;;;3.75;2.50;;;;;21.78;32.33;101990.47;5041815;28;45537;-71
2023/03/28 02:10:09;;;;;;;;;3.00;2.00;;;;;21.78;32.17;101995.81;5038705;28;45586;-71
2023/03/28 02:12:44;;;;;;;;;1.75;1.75;;;;;21.76;31.93;101987.88;5019389;28;45225;-71
2023/03/28 02:15:12;;;;;;;;;2.75;1.75;;;;;21.77;32.16;101988.75;5028356;28;45460;-71
2023/03/28 02:17:47;;;;;;;;;1.00;1.00;;;;;21.76;32.18;101989.66;5039738;28;46501;-72
2023/03/28 02:20:18;;;;;;;;;3.00;1.75;;;;;21.75;32.26;101990.63;5023554;28;45990;-71
2023/03/28 02:22:46;;;;;;;;;0.50;0.50;;;;;21.76;32.03;101995.88;5036049;28;45332;-71
2023/03/28 02:25:11;;;;;;;;;3.75;1.25;;;;;21.74;31.59;101988.91;5034231;28;45614;-71
2023/03/28 02:27:38;;;;;;;;;2.75;1.00;;;;;21.71;31.80;101984.59;5034035;28;64719;-71
2023/03/28 02:30:06;;;;;;;;;2.75;1.00;;;;;21.74;31.74;101984.44;5034211;28;45681;-71
2023/03/28 02:32:32;;;;;;;;;1.00;1.00;;;;;21.71;31.98;101983.72;5051682;28;45482;-71
2023/03/28 02:34:59;;;;;;;;;3.00;1.00;;;;;21.73;31.73;101984.53;5030040;28;45432;-71
2023/03/28 02:37:49;;;;;;;;;2.50;2.00;;;;;21.74;31.58;101983.56;5049783;28;45345;-71
2023/03/28 02:40:53;;;;;;;;;2.75;2.00;;;;;21.73;31.59;101968.53;5045685;28;45976;-71
2023/03/28 02:43:31;;;;;;;;;1.00;1.00;;;;;21.71;31.51;101978.41;5046890;28;45368;-71
2023/03/28 02:46:05;;;;;;;;;1.75;1.00;;;;;21.70;31.59;101958.88;5034532;28;45456;-71
2023/03/28 02:48:50;;;;;;;;;1.00;1.00;;;;;21.69;31.52;101957.19;5034082;28;47240;-71
2023/03/28 02:51:29;;;;;;;;;3.00;1.00;;;;;21.69;31.53;101959.84;5034664;28;45896;-71
2023/03/28 02:54:08;;;;;;;;;3.00;1.75;;;;;21.67;31.49;101944.88;5021635;28;45308;-71
2023/03/28 02:56:59;;;;;;;;;2.00;1.00;;;;;21.68;31.58;101942.13;5043278;28;45620;-71
2023/03/28 02:59:35;;;;;;;;;1.25;1.00;;;;;21.66;31.87;101938.69;5035544;28;45470;-71
2023/03/28 03:02:02;;;;;;;;;2.00;2.00;;;;;21.61;31.67;101928.28;5044868;28;45984;-71
2023/03/28 03:04:27;;;;;;;;;1.50;1.00;;;;;21.66;31.85;101936.03;5030949;28;45517;-71
2023/03/28 03:06:53;;;;;;;;;2.25;2.25;;;;;21.65;31.40;101936.97;5041841;28;45589;-71
2023/03/28 03:09:18;;;;;;;;;1.00;1.00;;;;;21.65;31.57;101942.28;5031444;28;45451;-71
2023/03/28 03:11:44;;;;;;;;;2.50;2.00;;;;;21.65;31.50;101931.63;5057859;28;56914;-71
2023/03/28 03:14:10;;;;;;;;;1.00;1.00;;;;;21.63;31.67;101922.03;5018678;28;68058;-71
2023/03/28 03:16:37;;;;;;;;;2.00;1.00;;;;;21.63;31.48;101930.88;5036584;28;45518;-72
2023/03/28 03:19:03;;;;;;;;;2.00;0.00;;;;;21.63;31.96;101933.53;5033677;28;48652;-71
2023/03/28 03:21:28;;;;;;;;;1.00;1.00;;;;;21.61;31.56;101922.94;5036069;28;45382;-71
2023/03/28 03:23:54;;;;;;;;;1.00;1.00;;;;;21.60;32.02;101918.59;5026806;28;57456;-71
2023/03/28 03:26:19;;;;;;;;;2.50;1.00;;;;;21.60;31.86;101915.94;5040836;28;45434;-71
2023/03/28 03:28:44;;;;;;;;;1.00;1.00;;;;;21.59;31.65;101906.19;5043059;28;46109;-71
2023/03/28 03:31:10;;;;;;;;;1.00;1.00;;;;;21.60;31.48;101901.72;5018241;28;45539;-71
2023/03/28 03:33:36;;;;;;;;;3.00;2.00;;;;;21.60;31.37;101902.59;5017696;28;45508;-72
2023/03/28 03:36:03;;;;;;;;;0.25;0.00;;;;;21.60;31.80;101897.28;5045384;28;45488;-69
2023/03/28 03:38:29;;;;;;;;;1.00;1.00;;;;;21.59;31.88;101895.53;5054666;28;45506;-71
2023/03/28 03:40:54;;;;;;;;;2.25;1.75;;;;;21.56;31.56;101885.06;5046392;28;45294;-71
2023/03/28 03:43:20;;;;;;;;;1.00;1.00;;;;;21.59;31.76;101900.03;5032217;28;45637;-71
2023/03/28 03:45:45;;;;;;;;;1.50;1.00;;;;;21.55;31.65;101885.16;5038833;28;45416;-71
2023/03/28 03:48:10;;;;;;;;;1.75;1.75;;;;;21.57;31.72;101893.94;5054345;28;74265;-71
2023/03/28 03:50:36;;;;;;;;;1.00;1.00;;;;;21.54;31.67;101888.75;5035361;28;63808;-72
2023/03/28 03:53:01;;;;;;;;;1.25;1.25;;;;;21.56;31.64;101900.19;5041128;28;45296;-72
2023/03/28 03:55:26;;;;;;;;;3.75;1.50;;;;;21.55;31.38;101901.16;5024411;28;65928;-72
2023/03/28 03:57:52;;;;;;;;;2.25;1.25;;;;;21.52;31.62;101891.50;5028700;28;73577;-72
2023/03/28 04:00:18;;;;;;;;;1.75;1.50;;;;;21.55;31.29;101902.00;5036697;28;65840;-72
2023/03/28 04:02:43;;;;;;;;;1.50;1.50;;;;;21.54;31.87;101900.25;5019135;28;45395;-72
2023/03/28 04:05:09;;;;;;;;;3.00;2.00;;;;;21.54;31.91;101900.25;5029193;28;45413;-72
2023/03/28 04:07:35;;;;;;;;;3.25;1.00;;;;;21.51;31.68;101884.44;5032359;28;45884;-72
2023/03/28 04:10:00;;;;;;;;;2.00;1.00;;;;;21.53;31.96;101881.69;5051846;28;45617;-72
2023/03/28 04:12:25;;;;;;;;;3.25;1.00;;;;;21.53;31.88;101887.03;5047353;28;45361;-72
2023/03/28 04:14:51;;;;;;;;;1.00;1.00;;;;;21.52;31.40;101888.84;5032237;28;47426;-72
2023/03/28 04:17:20;;;;;;;;;1.25;1.25;;;;;21.51;31.40;101884.44;5058979;28;45426;-71
2023/03/28 04:19:46;;;;;;;;;2.50;1.00;;;;;21.51;31.54;101884.44;5041285;28;45355;-72
2023/03/28 04:22:12;;;;;;;;;3.50;2.00;;;;;21.49;31.45;101882.81;5039292;28;46039;-71
2023/03/28 04:24:40;;;;;;;;;2.00;1.00;;;;;21.52;31.37;101895.97;5061160;28;45355;-71
2023/03/28 04:27:08;;;;;;;;;2.00;2.00;;;;;21.49;31.85;101890.81;5057750;28;47007;-71
2023/03/28 04:29:33;;;;;;;;;0.75;0.75;;;;;21.49;31.68;101888.16;5038779;28;45567;-71
2023/03/28 04:31:59;;;;;;;;;1.00;1.00;;;;;21.50;31.80;101889.88;5029563;28;45372;-71
2023/03/28 04:34:28;;;;;;;;;1.00;1.00;;;;;21.49;31.71;101890.81;5037295;28;45379;-72
2023/03/28 04:37:00;;;;;;;;;2.00;1.00;;;;;21.50;31.67;101887.22;5039998;28;46159;-72
2023/03/28 04:39:26;;;;;;;;;1.75;1.75;;;;;21.49;31.42;101882.81;5036534;28;45818;-72
2023/03/28 04:41:54;;;;;;;;;2.50;0.25;;;;;21.47;31.91;101876.72;5062160;28;45260;-72
2023/03/28 04:44:20;;;;;;;;;2.00;1.00;;;;;21.45;31.86;101876.78;5041241;28;45437;-72
2023/03/28 04:46:47;;;;;;;;;1.00;1.00;;;;;21.48;31.89;101878.41;5041174;28;45703;-72
2023/03/28 04:49:13;;;;;;;;;1.75;1.75;;;;;21.46;31.59;101877.66;5024410;28;45489;-72
2023/03/28 04:51:38;;;;;;;;;1.00;1.00;;;;;21.45;31.49;101873.25;5051207;28;45503;-72
2023/03/28 04:54:03;;;;;;;;;2.00;1.00;;;;;21.46;31.48;101882.97;5040548;28;53379;-72
2023/03/28 04:56:29;;;;;;;;;3.00;1.00;;;;;21.42;31.82;101876.94;5068211;28;46278;-72
2023/03/28 04:58:54;;;;;;;;;0.00;0.00;;;;;21.44;32.00;101885.69;5035497;28;45521;-72
2023/03/28 05:01:21;;;;;;;;;1.00;1.00;;;;;21.44;31.52;101883.03;5038065;28;45508;-72
2023/03/28 05:03:46;;;;;;;;;1.00;1.00;;;;;21.45;31.27;101875.91;5054149;28;45217;-72
2023/03/28 05:06:12;;;;;;;;;2.00;1.00;;;;;21.40;31.63;101874.34;5018611;28;74782;-72
2023/03/28 05:08:37;;;;;;;;;1.50;1.00;;;;;21.45;31.88;101882.09;5035728;28;71436;-72
2023/03/28 05:11:03;;;;;;;;;3.00;2.00;;;;;21.42;31.64;101885.81;5048333;28;64895;-72
2023/03/28 05:13:28;;;;;;;;;1.75;1.75;;;;;21.43;31.66;101886.66;5038711;28;45276;-72
2023/03/28 05:15:53;;;;;;;;;1.00;1.00;;;;;21.40;31.44;101882.34;5037371;28;48205;-72
2023/03/28 05:18:19;;;;;;;;;2.00;1.75;;;;;21.40;31.76;101890.31;5033733;28;45457;-72
2023/03/28 05:20:44;;;;;;;;;0.75;0.50;;;;;21.42;31.41;101893.78;5037232;28;51242;-72
2023/03/28 05:23:10;;;;;;;;;1.00;1.00;;;;;21.42;31.50;101900.91;5041299;28;45299;-72
2023/03/28 05:25:35;;;;;;;;;2.75;1.00;;;;;21.38;31.45;101886.03;5025247;28;45361;-72
2023/03/28 05:28:01;;;;;;;;;1.00;1.00;;;;;21.40;31.39;101895.66;5036734;28;45273;-72
2023/03/28 05:30:27;;;;;;;;;1.25;1.00;;;;;21.39;31.43;101891.28;5041527;28;45354;-72
2023/03/28 05:32:52;;;;;;;;;0.50;0.50;;;;;21.38;31.44;101888.69;5041533;28;45333;-71
2023/03/28 05:35:18;;;;;;;;;2.25;2.00;;;;;21.36;31.53;101885.25;5031235;28;45470;-71
2023/03/28 05:37:43;;;;;;;;;1.50;1.00;;;;;21.37;31.37;101885.19;5058739;28;45464;-71
2023/03/28 05:40:10;;;;;;;;;2.25;1.00;;;;;21.35;31.74;101879.06;5029240;28;45341;-75
2023/03/28 05:42:37;;;;;;;;;3.00;1.00;;;;;21.38;31.35;101878.03;5030943;28;45371;-70
2023/03/28 05:45:03;;;;;;;;;1.00;1.00;;;;;21.37;31.68;101885.19;5049705;28;45491;-70
2023/03/28 05:47:29;;;;;;;;;2.25;1.00;;;;;21.37;31.58;101882.53;5049296;28;45691;-70
2023/03/28 05:49:54;;;;;;;;;2.00;1.75;;;;;21.38;31.93;101891.38;5046531;28;63080;-70
2023/03/28 05:52:20;;;;;;;;;3.50;3.00;;;;;21.37;31.79;101885.19;5029008;28;46923;-70
2023/03/28 05:54:45;;;;;;;;;3.00;3.00;;;;;21.38;31.52;101889.56;5028767;28;45329;-71
2023/03/28 05:57:10;;;;;;;;;4.50;2.75;;;;;21.36;31.70;101875.47;5034997;28;45443;-72
2023/03/28 05:59:39;;;;;;;;;3.25;2.50;;;;;21.39;31.50;101879.78;5033388;28;45423;-71
2023/03/28 06:02:12;;;;;;;;;3.25;2.50;;;;;21.37;32.17;101885.19;5049630;28;45308;-71
2023/03/28 06:04:38;;;;;;;;;2.25;1.75;;;;;21.40;32.03;101886.81;5021329;28;48511;-71
2023/03/28 06:07:04;;;;;;;;;5.00;2.50;;;;;21.38;31.63;101881.56;5035223;28;45950;-74
2023/03/28 06:09:30;;;;;;;;;1.50;1.50;;;;;21.39;31.71;101885.09;5053434;28;45430;-72
2023/03/28 06:11:56;;;;;;;;;3.50;3.50;;;;;21.36;31.17;101888.78;5044604;28;45387;-77
2023/03/28 06:14:22;;;;;;;;;5.25;4.00;;;;;21.31;30.91;101888.16;5020670;28;49692;-77
2023/03/28 06:16:47;;;;;;;;;7.00;5.25;;;;;21.29;30.06;101897.19;5040687;28;64338;-73
2023/03/28 06:19:13;;;;;;;;;4.50;4.50;;;;;21.14;29.82;101899.72;5050193;28;65826;-74
2023/03/28 06:21:39;;;;;;;;;4.75;4.75;;;;;21.08;29.65;101907.19;5033094;28;45343;-76
2023/03/28 06:24:05;;;;;;;;;6.50;4.75;;;;;21.00;29.27;101911.09;5039269;28;46896;-76
2023/03/28 06:26:30;;;;;;;;;9.75;5.00;;;;;20.90;29.15;101914.31;5015946;28;45422;-76
2023/03/28 06:28:55;;;;;;;;;6.50;5.00;;;;;20.81;29.13;101908.53;5035515;28;71362;-76
2023/03/28 06:31:21;;;;;;;;;5.25;5.00;;;;;20.69;29.58;101901.16;5013699;28;45606;-76
2023/03/28 06:33:46;;;;;;;;;3.25;3.25;;;;;20.71;29.66;101903.75;5053457;28;45774;-71
2023/03/28 06:36:12;;;;;;;;;4.50;4.00;;;;;20.70;30.05;101902.91;5017889;28;45399;-71
2023/03/28 06:38:37;;;;;;;;;5.00;4.25;;;;;20.72;30.05;101908.16;5014132;28;45848;-71
2023/03/28 06:41:03;;;;;;;;;6.00;3.00;;;;;20.77;29.97;101912.28;5035939;28;45582;-71
2023/03/28 06:43:30;;;;;;;;;4.25;4.00;;;;;20.79;30.70;101914.88;5010847;28;47164;-80
2023/03/28 06:45:56;;;;;;;;;6.75;3.50;;;;;20.84;30.76;101915.47;5023556;28;45355;-81
2023/03/28 06:48:21;;;;;;;;;4.50;2.75;;;;;20.87;30.53;101920.66;5038820;28;45552;-81
2023/03/28 06:50:49;;;;;;;;;3.25;2.75;;;;;20.91;30.93;101916.03;5020854;28;45514;-77
2023/03/28 06:53:17;;;;;;;;;7.25;2.75;;;;;20.95;30.76;101914.94;5038952;28;47338;-75
2023/03/28 06:55:43;;;;;;;;;3.00;3.00;;;;;20.95;31.04;101902.50;5023791;28;45718;-80
2023/03/28 06:58:09;;;;;;;;;5.50;4.25;;;;;20.95;31.24;101899.84;5041508;28;46725;-68
2023/03/28 07:00:34;;;;;;;;;4.25;2.00;;;;;21.02;31.12;101892.41;5044517;28;45502;-69
2023/03/28 07:03:00;;;;;;;;;3.00;3.00;;;;;21.04;30.77;101896.69;5040284;28;45641;-69
2023/03/28 07:05:25;;;;;;;;;3.00;3.00;;;;;21.05;31.29;101894.88;5022761;28;70989;-69
2023/03/28 07:07:51;;;;;;;;;3.75;3.75;;;;;21.09;30.67;101896.44;5045993;28;45225;-69
2023/03/28 07:10:16;;;;;;;;;3.50;3.50;;;;;21.10;30.79;101882.19;5041625;28;56386;-69
2023/03/28 07:12:42;;;;;;;;;3.75;3.75;;;;;21.12;31.05;101876.78;5042503;28;56502;-69
2023/03/28 07:15:07;;;;;;;;;6.50;3.75;;;;;21.12;30.94;101861.66;5030125;28;70951;-69
2023/03/28 07:17:32;;;;;;;;;4.00;3.75;;;;;21.12;31.08;101853.69;5040614;28;45289;-69
2023/03/28 07:19:58;;;;;;;;;7.75;4.00;;;;;21.15;30.76;101855.34;5039906;28;58779;-69
2023/03/28 07:22:26;;;;;;;;;4.00;4.00;;;;;21.15;30.80;101856.19;5039177;28;48014;-69
2023/03/28 07:24:52;;;;;;;;;3.00;3.00;;;;;21.15;31.05;101856.19;5038835;28;45762;-69
2023/03/28 07:27:17;;;;;;;;;3.25;3.25;;;;;21.16;30.72;101849.03;5040620;28;45305;-69
2023/03/28 07:29:43;;;;;;;;;3.25;3.25;;;;;21.16;31.14;101855.25;5045739;28;62719;-70
2023/03/28 07:32:08;;;;;;;;;2.00;2.00;;;;;21.18;31.10;101868.47;5040285;28;48126;-70
2023/03/28 07:34:33;;;;;;;;;7.00;3.00;;;;;21.19;30.76;101867.53;5054348;28;45383;-69
2023/03/28 07:36:59;;;;;;;;;3.00;3.00;;;;;21.18;31.01;101872.00;5032736;28;45310;-69
2023/03/28 07:39:24;;;;;;;;;4.25;4.25;;;;;21.20;31.18;101872.78;5046391;28;45392;-69
2023/03/28 07:41:50;;;;;;;;;3.00;3.00;;;;;21.19;31.08;101883.50;5039939;28;47434;-70
2023/03/28 07:44:15;;;;;;;;;4.00;2.00;;;;;21.19;30.94;101871.03;5043663;28;45426;-70
2023/03/28 07:46:41;;;;;;;;;5.00;3.00;;;;;21.22;31.07;101878.00;5017874;28;49179;-70
2023/03/28 07:49:07;;;;;;;;;4.50;2.75;;;;;21.24;31.54;101876.97;5036170;28;45290;-70
2023/03/28 07:51:32;;;;;;;;;3.75;3.25;;;;;21.28;31.44;101876.81;5038885;28;46916;-69
2023/03/28 07:53:58;;;;;;;;;2.75;2.75;;;;;21.32;31.48;101886.34;5038291;28;45417;-70
2023/03/28 07:56:23;;;;;;;;;5.00;2.50;;;;;21.32;31.32;101875.69;5032776;28;45763;-69
2023/03/28 07:58:49;;;;;;;;;3.25;3.25;;;;;21.37;31.09;101876.31;5045581;28;45298;-69
2023/03/28 08:01:17;;;;;;;;;4.00;3.25;;;;;21.44;31.46;101888.34;5042658;28;45267;-69
2023/03/28 08:03:42;;;;;;;;;3.00;3.00;;;;;21.47;31.61;101888.22;5059703;28;45538;-69
2023/03/28 08:06:09;;;;;;;;;4.75;2.00;;;;;21.51;31.18;101900.41;5026714;28;47432;-69
2023/03/28 08:08:34;;;;;;;;;6.00;2.75;;;;;21.53;31.46;101895.00;5034761;28;45465;-69
2023/03/28 08:11:00;;;;;;;;;3.00;1.00;;;;;21.59;31.44;101895.53;5054481;28;71620;-69
2023/03/28 08:13:25;;;;;;;;;2.25;2.25;;;;;21.61;31.27;101884.81;5042020;28;62071;-69
2023/03/28 08:15:53;;;;;;;;;5.00;3.75;;;;;21.67;31.55;101889.78;5016859;28;45525;-69
2023/03/28 08:18:20;;;;;;;;;3.00;3.00;;;;;21.69;31.63;101890.59;5041385;28;45436;-69
2023/03/28 08:20:49;;;;;;;;;3.25;2.50;;;;;21.75;31.48;101892.88;5059243;28;46080;-69
2023/03/28 08:23:15;;;;;;;;;3.25;3.00;;;;;21.78;31.05;101892.72;5041247;28;45799;-69
2023/03/28 08:25:41;;;;;;;;;3.25;3.00;;;;;21.82;31.39;101892.56;5041318;28;45430;-69
2023/03/28 08:28:06;;;;;;;;;3.75;3.25;;;;;21.85;30.88;101892.38;5046249;28;45234;-69
2023/03/28 08:30:32;;;;;;;;;2.25;2.25;;;;;21.86;30.99;101883.44;5013596;28;45963;-69
2023/03/28 08:32:57;;;;;;;;;3.25;3.25;;;;;21.90;31.08;101887.66;5052260;28;54827;-69
2023/03/28 08:35:22;;;;;;;;;6.25;3.25;;;;;21.92;30.86;101880.41;5040355;28;45294;-69
2023/03/28 08:37:50;;;;;;;;;5.75;3.75;;;;;21.90;30.84;101880.53;5050774;28;45261;-69
2023/03/28 08:40:17;;;;;;;;;5.50;3.00;;;;;21.95;30.78;101885.59;5035788;28;47540;-69
2023/03/28 08:43:14;;;;;;;;;4.00;3.00;;;;;21.96;31.26;101890.81;5029709;28;45743;-69
2023/03/28 08:45:42;;;;;;;;;5.50;4.00;;;;;21.98;31.10;101893.41;5034167;28;46389;-69
2023/03/28 08:48:15;;;;;;;;;3.00;3.00;;;;;21.98;30.74;101888.94;5035944;28;45379;-69
2023/03/28 08:50:45;;;;;;;;;3.25;3.25;;;;;21.98;31.08;101883.59;5046213;28;45438;-69
2023/03/28 08:53:25;;;;;;;;;3.00;3.00;;;;;21.98;30.89;101880.94;5035304;28;45796;-69
2023/03/28 08:55:51;;;;;;;;;3.50;3.00;;;;;21.97;30.87;101873.03;5043828;28;45358;-69
2023/03/28 08:58:20;;;;;;;;;4.00;4.00;;;;;21.99;31.02;101868.47;5036236;28;45175;-69
2023/03/28 09:00:47;;;;;;;;;3.00;3.00;;;;;21.99;30.69;101882.66;5037306;28;45231;-69
2023/03/28 09:03:15;;;;;;;;;3.00;3.00;;;;;21.98;30.65;101874.75;5049279;28;45806;-69
2023/03/28 09:05:53;;;;;;;;;2.25;2.25;;;;;21.96;30.55;101863.31;5036578;28;45382;-69
2023/03/28 09:08:35;;;;;;;;;3.00;2.75;;;;;21.96;30.81;101866.84;5037963;28;45187;-69
2023/03/28 09:11:29;;;;;;;;;3.75;2.00;;;;;21.98;31.05;101856.09;5056108;28;45363;-69
2023/03/28 09:14:13;;;;;;;;;6.75;3.00;;;;;21.98;30.54;101850.75;5002010;28;45369;-69
2023/03/28 09:16:46;;;;;;;;;3.50;2.50;;;;;21.96;30.63;101853.50;5051635;28;45515;-69
2023/03/28 09:19:26;;;;;;;;;2.00;2.00;;;;;21.97;30.93;101855.25;5048849;28;45447;-69
2023/03/28 09:22:04;;;;;;;;;5.25;3.50;;;;;21.97;30.89;101863.25;5024580;28;45388;-69
2023/03/28 09:24:35;;;;;;;;;3.25;2.75;;;;;21.97;30.70;101849.03;5031584;28;45546;-69
2023/03/28 09:27:20;;;;;;;;;5.00;3.25;;;;;21.95;31.03;101846.44;5041740;28;45447;-69
2023/03/28 09:29:46;;;;;;;;;2.75;2.75;;;;;21.96;30.77;101856.19;5016421;28;45636;-69
2023/03/28 09:32:18;;;;;;;;;1.00;0.50;;;;;21.94;30.93;101847.41;5055212;28;45463;-69
2023/03/28 09:34:48;;;;;;;;;5.50;2.25;;;;;21.93;30.58;101844.84;5053334;28;45411;-69
2023/03/28 09:37:37;;;;;;;;;3.00;3.00;;;;;21.92;30.66;101851.97;5042151;28;45357;-69
2023/03/28 09:40:13;;;;;;;;;5.00;3.00;;;;;21.92;30.74;101840.44;5033451;28;45408;-69
2023/03/28 09:43:00;;;;;;;;;3.00;2.50;;;;;21.90;30.38;101831.69;5049848;28;46410;-69
2023/03/28 09:45:39;;;;;;;;;3.50;2.75;;;;;21.89;30.98;101825.50;5060909;28;45703;-69
2023/03/28 09:48:11;;;;;;;;;3.25;3.00;;;;;21.89;30.54;101825.50;5037950;28;45254;-69
2023/03/28 09:50:36;;;;;;;;;5.00;3.00;;;;;21.90;30.32;101813.03;5041126;28;45349;-69
2023/03/28 09:53:02;;;;;;;;;3.00;3.00;;;;;21.89;30.38;101814.00;5035421;28;59989;-68
2023/03/28 09:55:29;;;;;;;;;4.00;2.00;;;;;21.89;30.82;101806.00;5051117;28;45191;-67
2023/03/28 09:58:08;;;;;;;;;3.50;2.00;;;;;21.89;30.37;101806.84;5041487;28;45289;-67
2023/03/28 10:00:35;;;;;;;;;1.50;1.50;;;;;21.88;30.62;101801.59;5043723;28;45258;-67
2023/03/28 10:03:01;;;;;;;;;7.00;2.00;;;;;21.86;30.62;101796.34;5047943;28;47350;-67
2023/03/28 10:05:36;;;;;;;;;3.75;1.50;;;;;21.88;30.58;101802.44;5052491;28;45396;-68
2023/03/28 10:08:22;;;;;;;;;3.25;2.00;;;;;21.88;30.79;101804.25;5025008;28;45405;-68
2023/03/28 10:11:15;;;;;;;;;2.00;2.00;;;;;21.88;30.89;101798.94;5041490;28;45721;-68
2023/03/28 10:13:46;;;;;;;;;2.25;2.00;;;;;21.87;30.86;101795.41;5023353;28;47985;-69
2023/03/28 10:16:13;;;;;;;;;2.00;2.00;;;;;21.87;30.36;101791.88;5060092;28;45352;-68
2023/03/28 10:18:40;;;;;;;;;2.00;1.75;;;;;21.87;30.91;101783.88;5039744;28;45332;-68
2023/03/28 10:21:17;;;;;;;;;4.00;3.00;;;;;21.86;30.41;101790.16;5021248;28;45398;-68
2023/03/28 10:23:52;;;;;;;;;2.75;2.50;;;;;21.85;30.50;101786.66;5034922;28;46472;-68
2023/03/28 10:26:24;;;;;;;;;4.00;2.00;;;;;21.86;30.84;101783.03;5035573;28;45320;-68
2023/03/28 10:28:56;;;;;;;;;3.00;2.50;;;;;21.82;30.25;101781.50;5030442;28;45491;-68
2023/03/28 10:31:30;;;;;;;;;2.50;2.00;;;;;21.85;30.44;101778.66;5032873;28;46161;-68
2023/03/28 10:33:58;;;;;;;;;3.50;2.00;;;;;21.84;30.55;101784.06;5040800;28;47128;-68
2023/03/28 10:36:36;;;;;;;;;2.50;2.00;;;;;21.83;30.28;101783.19;5048291;28;45436;-68
2023/03/28 10:39:20;;;;;;;;;2.00;2.00;;;;;21.83;30.28;101785.84;5039119;28;45369;-68
2023/03/28 10:41:56;;;;;;;;;4.25;3.75;;;;;21.80;30.80;101773.59;5057674;28;45498;-68
2023/03/28 10:44:35;;;;;;;;;1.50;1.25;;;;;21.83;30.25;101777.00;5043989;28;46528;-68
2023/03/28 10:47:04;;;;;;;;;2.25;1.75;;;;;21.78;30.37;101764.81;5036717;28;45741;-69
2023/03/28 10:49:39;;;;;;;;;2.00;2.00;;;;;21.83;30.09;101783.19;5023968;28;45322;-68
2023/03/28 10:52:24;;;;;;;;;1.75;1.00;;;;;21.80;30.85;101767.41;5028348;28;45271;-68
2023/03/28 10:54:56;;;;;;;;;1.00;1.00;;;;;21.80;30.19;101765.59;5039100;28;47197;-68
2023/03/28 10:58:00;;;;;;;;;5.00;2.00;;;;;21.80;30.39;101751.41;5058940;28;45482;-68
2023/03/28 11:00:30;;;;;;;;;3.75;1.50;;;;;21.80;30.74;101748.75;5012599;28;45331;-68
2023/03/28 11:03:01;;;;;;;;;2.00;2.00;;;;;21.79;30.63;101750.53;5042065;28;45402;-68
2023/03/28 11:05:33;;;;;;;;;2.00;2.00;;;;;21.76;30.12;101737.41;5060569;28;46374;-68
2023/03/28 11:08:24;;;;;;;;;3.25;2.00;;;;;21.78;30.29;101743.50;5012810;28;45490;-68
2023/03/28 11:11:15;;;;;;;;;2.75;1.00;;;;;21.77;30.65;101744.44;5046559;28;45534;-68
2023/03/28 11:13:40;;;;;;;;;3.00;1.75;;;;;21.76;30.12;101745.41;5014471;28;45951;-68
2023/03/28 11:16:15;;;;;;;;;4.00;1.67;;;;;21.74;30.76;101731.31;5046391;28;45475;-68
2023/03/28 11:18:55;;;;;;;;;3.00;3.00;;;;;21.74;30.29;101731.31;5047294;28;45741;-68
2023/03/28 11:21:32;;;;;;;;;3.00;3.00;;;;;21.74;30.61;101730.44;5042260;28;45348;-68
2023/03/28 11:23:58;;;;;;;;;2.00;2.00;;;;;21.74;30.19;101723.34;5046741;28;45456;-68
2023/03/28 11:26:38;;;;;;;;;3.33;2.00;;;;;21.74;30.20;101714.47;5051916;28;45253;-68
2023/03/28 11:29:22;;;;;;;;;3.00;3.00;;;;;21.73;30.65;101726.94;5020065;28;45714;-69
2023/03/28 11:32:04;;;;;;;;;3.00;2.25;;;;;21.70;30.64;101720.91;5039802;28;45346;-69
2023/03/28 11:34:34;;;;;;;;;5.00;2.00;;;;;21.68;30.47;101721.00;5050795;28;45265;-68
2023/03/28 11:37:02;;;;;;;;;2.75;2.00;;;;;21.71;30.25;101722.63;5022581;28;46109;-69
2023/03/28 11:39:54;;;;;;;;;5.25;2.00;;;;;21.70;30.17;101711.13;5042129;28;45309;-68